sensor_id;sensor_type;location;lat;lon;timestamp;P1;durP1;ratioP1;P2;durP2;ratioP2
54935;SDS011;40838;50.676;7.838;2023-04-05T00:02:22;11.40;;;4.72;;
54935;SDS011;40838;50.676;7.838;2023-04-05T00:04:54;8.48;;;4.90;;
54935;SDS011;40838;50.676;7.838;2023-04-05T00:07:22;9.80;;;4.80;;
54935;SDS011;40838;50.676;7.838;2023-04-05T00:09:52;9.60;;;5.10;;
54935;SDS011;40838;50.676;7.838;2023-04-05T00:12:19;9.73;;;5.20;;
54935;SDS011;40838;50.676;7.838;2023-04-05T00:14:45;9.68;;;4.53;;
54935;SDS011;40838;50.676;7.838;2023-04-05T00:17:12;8.07;;;4.80;;
54935;SDS011;40838;50.676;7.838;2023-04-05T00:19:39;10.95;;;5.45;;
54935;SDS011;40838;50.676;7.838;2023-04-05T00:22:07;15.68;;;5.10;;
54935;SDS011;40838;50.676;7.838;2023-04-05T00:24:35;11.90;;;5.28;;
54935;SDS011;40838;50.676;7.838;2023-04-05T00:27:07;11.60;;;5.32;;
54935;SDS011;40838;50.676;7.838;2023-04-05T00:29:34;9.18;;;5.00;;
54935;SDS011;40838;50.676;7.838;2023-04-05T00:32:03;8.95;;;5.00;;
54935;SDS011;40838;50.676;7.838;2023-04-05T00:34:30;7.50;;;4.63;;
54935;SDS011;40838;50.676;7.838;2023-04-05T00:36:58;8.05;;;5.32;;
54935;SDS011;40838;50.676;7.838;2023-04-05T00:39:25;8.70;;;4.80;;
54935;SDS011;40838;50.676;7.838;2023-04-05T00:41:52;5.78;;;3.97;;
54935;SDS011;40838;50.676;7.838;2023-04-05T00:44:20;6.68;;;4.35;;
54935;SDS011;40838;50.676;7.838;2023-04-05T00:46:47;6.68;;;4.80;;
54935;SDS011;40838;50.676;7.838;2023-04-05T00:49:14;8.77;;;4.95;;
54935;SDS011;40838;50.676;7.838;2023-04-05T00:51:41;5.75;;;3.47;;
54935;SDS011;40838;50.676;7.838;2023-04-05T00:54:08;7.07;;;4.00;;
54935;SDS011;40838;50.676;7.838;2023-04-05T00:56:37;11.60;;;5.00;;
54935;SDS011;40838;50.676;7.838;2023-04-05T00:59:04;8.60;;;4.43;;
54935;SDS011;40838;50.676;7.838;2023-04-05T01:01:32;10.30;;;4.05;;
54935;SDS011;40838;50.676;7.838;2023-04-05T01:04:02;8.68;;;4.45;;
54935;SDS011;40838;50.676;7.838;2023-04-05T01:06:35;5.18;;;3.70;;
54935;SDS011;40838;50.676;7.838;2023-04-05T01:09:11;9.98;;;3.85;;
54935;SDS011;40838;50.676;7.838;2023-04-05T01:11:43;7.50;;;4.50;;
54935;SDS011;40838;50.676;7.838;2023-04-05T01:14:12;4.93;;;3.30;;
54935;SDS011;40838;50.676;7.838;2023-04-05T01:16:40;8.77;;;3.30;;
54935;SDS011;40838;50.676;7.838;2023-04-05T01:19:07;10.48;;;3.83;;
54935;SDS011;40838;50.676;7.838;2023-04-05T01:21:43;8.68;;;3.55;;
54935;SDS011;40838;50.676;7.838;2023-04-05T01:24:42;6.72;;;3.58;;
54935;SDS011;40838;50.676;7.838;2023-04-05T01:27:23;8.02;;;4.20;;
54935;SDS011;40838;50.676;7.838;2023-04-05T01:30:04;5.63;;;3.45;;
54935;SDS011;40838;50.676;7.838;2023-04-05T01:32:39;5.35;;;3.17;;
54935;SDS011;40838;50.676;7.838;2023-04-05T01:35:17;8.88;;;3.78;;
54935;SDS011;40838;50.676;7.838;2023-04-05T01:37:51;7.53;;;3.40;;
54935;SDS011;40838;50.676;7.838;2023-04-05T01:40:25;7.72;;;3.72;;
54935;SDS011;40838;50.676;7.838;2023-04-05T01:42:53;9.25;;;4.13;;
54935;SDS011;40838;50.676;7.838;2023-04-05T01:45:21;8.43;;;3.55;;
54935;SDS011;40838;50.676;7.838;2023-04-05T01:47:48;6.93;;;3.70;;
54935;SDS011;40838;50.676;7.838;2023-04-05T01:50:17;6.05;;;3.75;;
54935;SDS011;40838;50.676;7.838;2023-04-05T01:52:44;7.20;;;3.38;;
54935;SDS011;40838;50.676;7.838;2023-04-05T01:55:11;7.72;;;3.90;;
54935;SDS011;40838;50.676;7.838;2023-04-05T01:57:38;7.90;;;3.20;;
54935;SDS011;40838;50.676;7.838;2023-04-05T02:00:05;8.18;;;4.70;;
54935;SDS011;40838;50.676;7.838;2023-04-05T02:02:39;8.45;;;4.20;;
54935;SDS011;40838;50.676;7.838;2023-04-05T02:05:06;6.80;;;4.25;;
54935;SDS011;40838;50.676;7.838;2023-04-05T02:07:34;9.18;;;4.00;;
54935;SDS011;40838;50.676;7.838;2023-04-05T02:10:01;6.55;;;4.43;;
54935;SDS011;40838;50.676;7.838;2023-04-05T02:12:28;10.88;;;5.28;;
54935;SDS011;40838;50.676;7.838;2023-04-05T02:14:56;7.97;;;4.43;;
54935;SDS011;40838;50.676;7.838;2023-04-05T02:17:23;9.55;;;4.70;;
54935;SDS011;40838;50.676;7.838;2023-04-05T02:19:51;6.47;;;4.25;;
54935;SDS011;40838;50.676;7.838;2023-04-05T02:22:18;6.85;;;4.40;;
54935;SDS011;40838;50.676;7.838;2023-04-05T02:24:45;8.50;;;5.22;;
54935;SDS011;40838;50.676;7.838;2023-04-05T02:27:12;11.32;;;4.50;;
54935;SDS011;40838;50.676;7.838;2023-04-05T02:29:39;9.70;;;5.13;;
54935;SDS011;40838;50.676;7.838;2023-04-05T02:32:06;12.52;;;4.60;;
54935;SDS011;40838;50.676;7.838;2023-04-05T02:34:32;8.38;;;4.53;;
54935;SDS011;40838;50.676;7.838;2023-04-05T02:37:02;7.43;;;4.50;;
54935;SDS011;40838;50.676;7.838;2023-04-05T02:39:29;8.25;;;4.28;;
54935;SDS011;40838;50.676;7.838;2023-04-05T02:41:56;7.00;;;4.47;;
54935;SDS011;40838;50.676;7.838;2023-04-05T02:44:23;9.15;;;4.35;;
54935;SDS011;40838;50.676;7.838;2023-04-05T02:46:52;10.75;;;4.30;;
54935;SDS011;40838;50.676;7.838;2023-04-05T02:49:25;8.40;;;3.72;;
54935;SDS011;40838;50.676;7.838;2023-04-05T02:51:53;7.05;;;3.95;;
54935;SDS011;40838;50.676;7.838;2023-04-05T02:54:22;10.35;;;3.78;;
54935;SDS011;40838;50.676;7.838;2023-04-05T02:56:55;11.35;;;4.18;;
54935;SDS011;40838;50.676;7.838;2023-04-05T02:59:24;9.85;;;4.60;;
54935;SDS011;40838;50.676;7.838;2023-04-05T03:01:51;9.15;;;4.20;;
54935;SDS011;40838;50.676;7.838;2023-04-05T03:04:23;6.60;;;4.20;;
54935;SDS011;40838;50.676;7.838;2023-04-05T03:06:54;7.80;;;3.83;;
54935;SDS011;40838;50.676;7.838;2023-04-05T03:09:24;11.02;;;4.20;;
54935;SDS011;40838;50.676;7.838;2023-04-05T03:12:00;10.13;;;4.25;;
54935;SDS011;40838;50.676;7.838;2023-04-05T03:14:28;8.25;;;5.05;;
54935;SDS011;40838;50.676;7.838;2023-04-05T03:16:57;6.63;;;4.20;;
54935;SDS011;40838;50.676;7.838;2023-04-05T03:19:34;7.60;;;3.95;;
54935;SDS011;40838;50.676;7.838;2023-04-05T03:22:11;7.20;;;4.18;;
54935;SDS011;40838;50.676;7.838;2023-04-05T03:24:40;6.53;;;4.30;;
54935;SDS011;40838;50.676;7.838;2023-04-05T03:27:11;10.20;;;4.32;;
54935;SDS011;40838;50.676;7.838;2023-04-05T03:30:05;10.98;;;4.65;;
54935;SDS011;40838;50.676;7.838;2023-04-05T03:32:38;6.13;;;4.30;;
54935;SDS011;40838;50.676;7.838;2023-04-05T03:35:13;7.95;;;3.75;;
54935;SDS011;40838;50.676;7.838;2023-04-05T03:37:45;9.13;;;4.78;;
54935;SDS011;40838;50.676;7.838;2023-04-05T03:40:14;6.70;;;4.03;;
54935;SDS011;40838;50.676;7.838;2023-04-05T03:42:43;8.02;;;3.80;;
54935;SDS011;40838;50.676;7.838;2023-04-05T03:45:10;8.82;;;4.30;;
54935;SDS011;40838;50.676;7.838;2023-04-05T03:47:37;7.63;;;4.50;;
54935;SDS011;40838;50.676;7.838;2023-04-05T03:50:06;6.03;;;4.20;;
54935;SDS011;40838;50.676;7.838;2023-04-05T03:52:34;7.30;;;4.50;;
54935;SDS011;40838;50.676;7.838;2023-04-05T03:55:03;5.80;;;3.92;;
54935;SDS011;40838;50.676;7.838;2023-04-05T03:57:34;7.07;;;3.97;;
54935;SDS011;40838;50.676;7.838;2023-04-05T04:00:14;6.45;;;4.28;;
54935;SDS011;40838;50.676;7.838;2023-04-05T04:02:42;10.40;;;4.60;;
54935;SDS011;40838;50.676;7.838;2023-04-05T04:05:10;7.28;;;4.38;;
54935;SDS011;40838;50.676;7.838;2023-04-05T04:07:38;7.70;;;4.38;;
54935;SDS011;40838;50.676;7.838;2023-04-05T04:10:06;8.25;;;4.03;;
54935;SDS011;40838;50.676;7.838;2023-04-05T04:12:37;12.77;;;4.75;;
54935;SDS011;40838;50.676;7.838;2023-04-05T04:15:05;9.60;;;4.32;;
54935;SDS011;40838;50.676;7.838;2023-04-05T04:17:43;9.45;;;4.13;;
54935;SDS011;40838;50.676;7.838;2023-04-05T04:20:22;7.72;;;3.85;;
54935;SDS011;40838;50.676;7.838;2023-04-05T04:23:14;10.23;;;4.32;;
54935;SDS011;40838;50.676;7.838;2023-04-05T04:25:55;7.20;;;4.25;;
54935;SDS011;40838;50.676;7.838;2023-04-05T04:28:42;8.73;;;4.13;;
54935;SDS011;40838;50.676;7.838;2023-04-05T04:31:37;8.30;;;3.90;;
54935;SDS011;40838;50.676;7.838;2023-04-05T04:34:26;8.23;;;4.60;;
54935;SDS011;40838;50.676;7.838;2023-04-05T04:37:15;9.88;;;4.47;;
54935;SDS011;40838;50.676;7.838;2023-04-05T04:39:43;7.65;;;3.97;;
54935;SDS011;40838;50.676;7.838;2023-04-05T04:42:34;9.50;;;4.45;;
54935;SDS011;40838;50.676;7.838;2023-04-05T04:45:07;7.65;;;4.30;;
54935;SDS011;40838;50.676;7.838;2023-04-05T04:47:44;6.63;;;4.03;;
54935;SDS011;40838;50.676;7.838;2023-04-05T04:50:50;8.00;;;4.50;;
54935;SDS011;40838;50.676;7.838;2023-04-05T04:53:19;6.88;;;4.05;;
54935;SDS011;40838;50.676;7.838;2023-04-05T04:55:46;9.05;;;4.38;;
54935;SDS011;40838;50.676;7.838;2023-04-05T04:58:15;6.55;;;3.72;;
54935;SDS011;40838;50.676;7.838;2023-04-05T05:03:17;8.55;;;3.95;;
54935;SDS011;40838;50.676;7.838;2023-04-05T05:05:47;10.15;;;4.80;;
54935;SDS011;40838;50.676;7.838;2023-04-05T05:08:20;9.20;;;4.90;;
54935;SDS011;40838;50.676;7.838;2023-04-05T05:10:49;8.48;;;4.63;;
54935;SDS011;40838;50.676;7.838;2023-04-05T05:13:16;6.32;;;4.05;;
54935;SDS011;40838;50.676;7.838;2023-04-05T05:15:43;7.45;;;4.10;;
54935;SDS011;40838;50.676;7.838;2023-04-05T05:18:12;7.75;;;4.05;;
54935;SDS011;40838;50.676;7.838;2023-04-05T05:20:39;9.00;;;4.57;;
54935;SDS011;40838;50.676;7.838;2023-04-05T05:23:07;12.35;;;4.60;;
54935;SDS011;40838;50.676;7.838;2023-04-05T05:25:33;17.70;;;5.45;;
54935;SDS011;40838;50.676;7.838;2023-04-05T05:28:01;12.82;;;5.18;;
54935;SDS011;40838;50.676;7.838;2023-04-05T05:30:28;9.93;;;4.80;;
54935;SDS011;40838;50.676;7.838;2023-04-05T05:32:56;10.10;;;5.00;;
54935;SDS011;40838;50.676;7.838;2023-04-05T05:35:24;8.55;;;4.50;;
54935;SDS011;40838;50.676;7.838;2023-04-05T05:37:51;10.48;;;5.28;;
54935;SDS011;40838;50.676;7.838;2023-04-05T05:40:18;9.00;;;4.65;;
54935;SDS011;40838;50.676;7.838;2023-04-05T05:42:45;9.15;;;5.28;;
54935;SDS011;40838;50.676;7.838;2023-04-05T05:45:12;8.43;;;4.97;;
54935;SDS011;40838;50.676;7.838;2023-04-05T05:47:38;8.07;;;5.47;;
54935;SDS011;40838;50.676;7.838;2023-04-05T05:50:06;7.28;;;4.93;;
54935;SDS011;40838;50.676;7.838;2023-04-05T05:52:35;8.27;;;4.60;;
54935;SDS011;40838;50.676;7.838;2023-04-05T05:55:02;8.35;;;4.30;;
54935;SDS011;40838;50.676;7.838;2023-04-05T05:57:29;7.70;;;4.40;;
54935;SDS011;40838;50.676;7.838;2023-04-05T05:59:56;7.55;;;4.45;;
54935;SDS011;40838;50.676;7.838;2023-04-05T06:02:23;7.05;;;3.63;;
54935;SDS011;40838;50.676;7.838;2023-04-05T06:04:50;4.95;;;3.13;;
54935;SDS011;40838;50.676;7.838;2023-04-05T06:07:17;5.78;;;3.60;;
54935;SDS011;40838;50.676;7.838;2023-04-05T06:09:45;8.98;;;3.85;;
54935;SDS011;40838;50.676;7.838;2023-04-05T06:12:12;5.40;;;3.30;;
54935;SDS011;40838;50.676;7.838;2023-04-05T06:14:38;4.32;;;3.13;;
54935;SDS011;40838;50.676;7.838;2023-04-05T06:17:05;7.13;;;3.90;;
54935;SDS011;40838;50.676;7.838;2023-04-05T06:19:32;5.82;;;3.65;;
54935;SDS011;40838;50.676;7.838;2023-04-05T06:21:58;6.30;;;3.40;;
54935;SDS011;40838;50.676;7.838;2023-04-05T06:24:25;6.53;;;4.03;;
54935;SDS011;40838;50.676;7.838;2023-04-05T06:26:57;5.78;;;3.92;;
54935;SDS011;40838;50.676;7.838;2023-04-05T06:29:24;7.57;;;3.92;;
54935;SDS011;40838;50.676;7.838;2023-04-05T06:31:51;12.25;;;3.60;;
54935;SDS011;40838;50.676;7.838;2023-04-05T06:34:18;6.03;;;3.13;;
54935;SDS011;40838;50.676;7.838;2023-04-05T06:36:45;4.75;;;3.17;;
54935;SDS011;40838;50.676;7.838;2023-04-05T06:39:12;6.95;;;3.67;;
54935;SDS011;40838;50.676;7.838;2023-04-05T06:41:38;5.85;;;3.53;;
54935;SDS011;40838;50.676;7.838;2023-04-05T06:44:07;5.43;;;3.53;;
54935;SDS011;40838;50.676;7.838;2023-04-05T06:46:34;8.38;;;3.58;;
54935;SDS011;40838;50.676;7.838;2023-04-05T06:49:00;4.95;;;3.08;;
54935;SDS011;40838;50.676;7.838;2023-04-05T06:51:27;5.97;;;3.30;;
54935;SDS011;40838;50.676;7.838;2023-04-05T06:53:55;8.40;;;3.60;;
54935;SDS011;40838;50.676;7.838;2023-04-05T06:56:22;9.25;;;3.63;;
54935;SDS011;40838;50.676;7.838;2023-04-05T06:58:49;5.65;;;3.53;;
54935;SDS011;40838;50.676;7.838;2023-04-05T07:01:17;6.13;;;3.55;;
54935;SDS011;40838;50.676;7.838;2023-04-05T07:03:44;5.90;;;3.63;;
54935;SDS011;40838;50.676;7.838;2023-04-05T07:06:11;5.25;;;2.75;;
54935;SDS011;40838;50.676;7.838;2023-04-05T07:08:37;7.57;;;3.25;;
54935;SDS011;40838;50.676;7.838;2023-04-05T07:11:04;6.72;;;3.67;;
54935;SDS011;40838;50.676;7.838;2023-04-05T07:13:31;8.70;;;3.42;;
54935;SDS011;40838;50.676;7.838;2023-04-05T07:15:58;4.78;;;3.50;;
54935;SDS011;40838;50.676;7.838;2023-04-05T07:18:27;6.68;;;3.40;;
54935;SDS011;40838;50.676;7.838;2023-04-05T07:20:55;6.57;;;3.25;;
54935;SDS011;40838;50.676;7.838;2023-04-05T07:23:26;10.43;;;4.03;;
54935;SDS011;40838;50.676;7.838;2023-04-05T07:25:53;4.38;;;2.85;;
54935;SDS011;40838;50.676;7.838;2023-04-05T07:28:20;6.75;;;3.05;;
54935;SDS011;40838;50.676;7.838;2023-04-05T07:30:47;5.97;;;2.78;;
54935;SDS011;40838;50.676;7.838;2023-04-05T07:33:14;4.45;;;2.97;;
54935;SDS011;40838;50.676;7.838;2023-04-05T07:35:43;5.88;;;3.20;;
54935;SDS011;40838;50.676;7.838;2023-04-05T07:38:10;7.47;;;3.63;;
54935;SDS011;40838;50.676;7.838;2023-04-05T07:40:37;8.23;;;3.90;;
54935;SDS011;40838;50.676;7.838;2023-04-05T07:43:03;6.93;;;3.50;;
54935;SDS011;40838;50.676;7.838;2023-04-05T07:45:30;10.32;;;3.53;;
54935;SDS011;40838;50.676;7.838;2023-04-05T07:47:57;3.75;;;3.08;;
54935;SDS011;40838;50.676;7.838;2023-04-05T07:50:25;5.45;;;3.45;;
54935;SDS011;40838;50.676;7.838;2023-04-05T07:52:54;3.95;;;2.80;;
54935;SDS011;40838;50.676;7.838;2023-04-05T07:55:21;6.35;;;3.42;;
54935;SDS011;40838;50.676;7.838;2023-04-05T07:57:48;7.38;;;3.40;;
54935;SDS011;40838;50.676;7.838;2023-04-05T08:00:15;5.88;;;3.47;;
54935;SDS011;40838;50.676;7.838;2023-04-05T08:02:42;7.45;;;3.25;;
54935;SDS011;40838;50.676;7.838;2023-04-05T08:05:09;5.90;;;3.33;;
54935;SDS011;40838;50.676;7.838;2023-04-05T08:07:35;6.35;;;2.95;;
54935;SDS011;40838;50.676;7.838;2023-04-05T08:10:04;4.93;;;3.05;;
54935;SDS011;40838;50.676;7.838;2023-04-05T08:12:33;5.57;;;2.83;;
54935;SDS011;40838;50.676;7.838;2023-04-05T08:15:00;5.50;;;3.10;;
54935;SDS011;40838;50.676;7.838;2023-04-05T08:17:27;4.20;;;3.00;;
54935;SDS011;40838;50.676;7.838;2023-04-05T08:19:54;5.07;;;3.22;;
54935;SDS011;40838;50.676;7.838;2023-04-05T08:22:21;6.05;;;2.85;;
54935;SDS011;40838;50.676;7.838;2023-04-05T08:24:48;10.45;;;2.80;;
54935;SDS011;40838;50.676;7.838;2023-04-05T08:27:16;8.30;;;2.88;;
54935;SDS011;40838;50.676;7.838;2023-04-05T08:29:43;4.93;;;2.70;;
54935;SDS011;40838;50.676;7.838;2023-04-05T08:32:10;4.68;;;3.40;;
54935;SDS011;40838;50.676;7.838;2023-04-05T08:34:37;5.65;;;2.90;;
54935;SDS011;40838;50.676;7.838;2023-04-05T08:37:04;5.20;;;3.10;;
54935;SDS011;40838;50.676;7.838;2023-04-05T08:39:32;3.97;;;2.72;;
54935;SDS011;40838;50.676;7.838;2023-04-05T08:42:02;5.95;;;2.90;;
54935;SDS011;40838;50.676;7.838;2023-04-05T08:44:33;6.63;;;3.30;;
54935;SDS011;40838;50.676;7.838;2023-04-05T08:47:03;3.95;;;2.65;;
54935;SDS011;40838;50.676;7.838;2023-04-05T08:49:30;5.85;;;3.08;;
54935;SDS011;40838;50.676;7.838;2023-04-05T08:51:58;6.80;;;3.25;;
54935;SDS011;40838;50.676;7.838;2023-04-05T08:54:26;4.78;;;2.70;;
54935;SDS011;40838;50.676;7.838;2023-04-05T08:56:53;6.55;;;2.70;;
54935;SDS011;40838;50.676;7.838;2023-04-05T08:59:23;6.72;;;3.03;;
54935;SDS011;40838;50.676;7.838;2023-04-05T09:01:53;6.88;;;3.10;;
54935;SDS011;40838;50.676;7.838;2023-04-05T09:04:21;4.75;;;3.28;;
54935;SDS011;40838;50.676;7.838;2023-04-05T09:06:50;5.43;;;2.88;;
54935;SDS011;40838;50.676;7.838;2023-04-05T09:09:17;6.38;;;3.60;;
54935;SDS011;40838;50.676;7.838;2023-04-05T09:11:46;7.68;;;2.80;;
54935;SDS011;40838;50.676;7.838;2023-04-05T09:14:13;8.13;;;3.72;;
54935;SDS011;40838;50.676;7.838;2023-04-05T09:16:41;6.15;;;3.00;;
54935;SDS011;40838;50.676;7.838;2023-04-05T09:19:10;5.38;;;3.10;;
54935;SDS011;40838;50.676;7.838;2023-04-05T09:24:35;8.85;;;3.50;;
54935;SDS011;40838;50.676;7.838;2023-04-05T09:27:06;4.55;;;3.60;;
54935;SDS011;40838;50.676;7.838;2023-04-05T09:29:34;3.92;;;3.35;;
54935;SDS011;40838;50.676;7.838;2023-04-05T09:32:03;5.00;;;3.70;;
54935;SDS011;40838;50.676;7.838;2023-04-05T09:34:32;7.90;;;3.53;;
54935;SDS011;40838;50.676;7.838;2023-04-05T09:37:01;6.55;;;3.45;;
54935;SDS011;40838;50.676;7.838;2023-04-05T09:39:28;7.07;;;3.92;;
54935;SDS011;40838;50.676;7.838;2023-04-05T09:42:03;8.07;;;3.83;;
54935;SDS011;40838;50.676;7.838;2023-04-05T09:44:49;7.93;;;3.47;;
54935;SDS011;40838;50.676;7.838;2023-04-05T09:47:17;6.10;;;3.47;;
54935;SDS011;40838;50.676;7.838;2023-04-05T09:49:49;4.68;;;3.10;;
54935;SDS011;40838;50.676;7.838;2023-04-05T09:52:20;6.45;;;3.20;;
54935;SDS011;40838;50.676;7.838;2023-04-05T09:54:49;4.80;;;3.40;;
54935;SDS011;40838;50.676;7.838;2023-04-05T09:57:17;7.60;;;3.65;;
54935;SDS011;40838;50.676;7.838;2023-04-05T09:59:45;5.82;;;3.47;;
54935;SDS011;40838;50.676;7.838;2023-04-05T10:02:12;9.02;;;3.60;;
54935;SDS011;40838;50.676;7.838;2023-04-05T10:04:39;4.88;;;2.83;;
54935;SDS011;40838;50.676;7.838;2023-04-05T10:07:09;3.92;;;3.10;;
54935;SDS011;40838;50.676;7.838;2023-04-05T10:09:37;7.70;;;3.78;;
54935;SDS011;40838;50.676;7.838;2023-04-05T10:12:05;16.23;;;5.07;;
54935;SDS011;40838;50.676;7.838;2023-04-05T10:14:32;5.15;;;3.33;;
54935;SDS011;40838;50.676;7.838;2023-04-05T10:17:02;8.50;;;3.80;;
54935;SDS011;40838;50.676;7.838;2023-04-05T10:19:36;4.32;;;3.17;;
54935;SDS011;40838;50.676;7.838;2023-04-05T10:22:19;5.10;;;2.67;;
54935;SDS011;40838;50.676;7.838;2023-04-05T10:24:51;5.37;;;3.00;;
54935;SDS011;40838;50.676;7.838;2023-04-05T10:27:22;6.15;;;2.67;;
54935;SDS011;40838;50.676;7.838;2023-04-05T10:29:59;5.95;;;3.15;;
54935;SDS011;40838;50.676;7.838;2023-04-05T10:35:30;6.18;;;3.65;;
54935;SDS011;40838;50.676;7.838;2023-04-05T10:38:09;4.55;;;3.35;;
54935;SDS011;40838;50.676;7.838;2023-04-05T10:40:42;4.45;;;2.92;;
54935;SDS011;40838;50.676;7.838;2023-04-05T10:43:14;6.15;;;3.90;;
54935;SDS011;40838;50.676;7.838;2023-04-05T10:45:43;4.22;;;3.10;;
54935;SDS011;40838;50.676;7.838;2023-04-05T10:48:15;6.15;;;3.03;;
54935;SDS011;40838;50.676;7.838;2023-04-05T10:50:49;4.25;;;2.70;;
54935;SDS011;40838;50.676;7.838;2023-04-05T10:53:18;4.18;;;3.30;;
54935;SDS011;40838;50.676;7.838;2023-04-05T10:55:47;4.40;;;2.90;;
54935;SDS011;40838;50.676;7.838;2023-04-05T10:58:16;7.15;;;3.42;;
54935;SDS011;40838;50.676;7.838;2023-04-05T11:00:44;8.05;;;3.15;;
54935;SDS011;40838;50.676;7.838;2023-04-05T11:03:20;11.35;;;3.47;;
54935;SDS011;40838;50.676;7.838;2023-04-05T11:06:29;6.15;;;3.60;;
54935;SDS011;40838;50.676;7.838;2023-04-05T11:09:00;8.15;;;3.80;;
54935;SDS011;40838;50.676;7.838;2023-04-05T11:11:37;6.93;;;3.60;;
54935;SDS011;40838;50.676;7.838;2023-04-05T11:14:16;6.45;;;3.30;;
54935;SDS011;40838;50.676;7.838;2023-04-05T11:16:45;7.15;;;3.45;;
54935;SDS011;40838;50.676;7.838;2023-04-05T11:19:15;6.38;;;3.28;;
54935;SDS011;40838;50.676;7.838;2023-04-05T11:21:42;6.32;;;3.75;;
54935;SDS011;40838;50.676;7.838;2023-04-05T11:24:11;7.38;;;3.92;;
54935;SDS011;40838;50.676;7.838;2023-04-05T11:26:53;7.80;;;4.55;;
54935;SDS011;40838;50.676;7.838;2023-04-05T11:32:18;5.88;;;3.72;;
54935;SDS011;40838;50.676;7.838;2023-04-05T11:34:56;5.78;;;3.70;;
54935;SDS011;40838;50.676;7.838;2023-04-05T11:42:59;5.50;;;3.70;;
54935;SDS011;40838;50.676;7.838;2023-04-05T11:45:28;4.03;;;3.20;;
54935;SDS011;40838;50.676;7.838;2023-04-05T11:47:56;4.20;;;3.40;;
54935;SDS011;40838;50.676;7.838;2023-04-05T11:50:27;5.35;;;3.63;;
54935;SDS011;40838;50.676;7.838;2023-04-05T11:53:08;6.28;;;3.35;;
54935;SDS011;40838;50.676;7.838;2023-04-05T11:55:37;4.55;;;3.45;;
54935;SDS011;40838;50.676;7.838;2023-04-05T11:58:11;7.00;;;3.40;;
54935;SDS011;40838;50.676;7.838;2023-04-05T12:00:39;8.73;;;4.63;;
54935;SDS011;40838;50.676;7.838;2023-04-05T12:03:06;6.82;;;3.45;;
54935;SDS011;40838;50.676;7.838;2023-04-05T12:05:48;5.97;;;3.92;;
54935;SDS011;40838;50.676;7.838;2023-04-05T12:08:16;7.38;;;4.47;;
54935;SDS011;40838;50.676;7.838;2023-04-05T12:10:45;8.50;;;4.35;;
54935;SDS011;40838;50.676;7.838;2023-04-05T12:13:24;6.40;;;3.63;;
54935;SDS011;40838;50.676;7.838;2023-04-05T12:15:51;4.68;;;3.83;;
54935;SDS011;40838;50.676;7.838;2023-04-05T12:18:18;6.72;;;3.35;;
54935;SDS011;40838;50.676;7.838;2023-04-05T12:20:45;7.35;;;3.78;;
54935;SDS011;40838;50.676;7.838;2023-04-05T12:23:12;9.80;;;3.92;;
54935;SDS011;40838;50.676;7.838;2023-04-05T12:25:45;6.50;;;3.97;;
54935;SDS011;40838;50.676;7.838;2023-04-05T12:28:12;6.68;;;3.90;;
54935;SDS011;40838;50.676;7.838;2023-04-05T12:30:47;5.40;;;3.33;;
54935;SDS011;40838;50.676;7.838;2023-04-05T12:33:14;5.85;;;4.00;;
54935;SDS011;40838;50.676;7.838;2023-04-05T12:35:41;6.35;;;3.50;;
54935;SDS011;40838;50.676;7.838;2023-04-05T12:38:08;4.15;;;3.50;;
54935;SDS011;40838;50.676;7.838;2023-04-05T12:40:35;5.20;;;3.30;;
54935;SDS011;40838;50.676;7.838;2023-04-05T12:43:07;4.50;;;3.00;;
54935;SDS011;40838;50.676;7.838;2023-04-05T12:45:35;5.43;;;3.35;;
54935;SDS011;40838;50.676;7.838;2023-04-05T12:48:07;7.07;;;3.33;;
54935;SDS011;40838;50.676;7.838;2023-04-05T12:50:35;6.40;;;3.22;;
54935;SDS011;40838;50.676;7.838;2023-04-05T12:53:07;6.57;;;3.80;;
54935;SDS011;40838;50.676;7.838;2023-04-05T12:55:37;5.50;;;3.50;;
54935;SDS011;40838;50.676;7.838;2023-04-05T12:58:10;6.63;;;3.63;;
54935;SDS011;40838;50.676;7.838;2023-04-05T13:00:37;7.55;;;3.47;;
54935;SDS011;40838;50.676;7.838;2023-04-05T13:03:04;9.35;;;3.60;;
54935;SDS011;40838;50.676;7.838;2023-04-05T13:05:31;5.88;;;3.53;;
54935;SDS011;40838;50.676;7.838;2023-04-05T13:07:58;4.47;;;3.03;;
54935;SDS011;40838;50.676;7.838;2023-04-05T13:10:24;12.27;;;3.72;;
54935;SDS011;40838;50.676;7.838;2023-04-05T13:12:51;6.25;;;4.13;;
54935;SDS011;40838;50.676;7.838;2023-04-05T13:15:20;6.85;;;3.45;;
54935;SDS011;40838;50.676;7.838;2023-04-05T13:17:47;8.40;;;3.97;;
54935;SDS011;40838;50.676;7.838;2023-04-05T13:20:16;5.07;;;3.35;;
54935;SDS011;40838;50.676;7.838;2023-04-05T13:22:43;8.75;;;3.97;;
54935;SDS011;40838;50.676;7.838;2023-04-05T13:25:10;6.63;;;4.00;;
54935;SDS011;40838;50.676;7.838;2023-04-05T13:27:37;8.25;;;3.63;;
54935;SDS011;40838;50.676;7.838;2023-04-05T13:30:04;3.80;;;3.20;;
54935;SDS011;40838;50.676;7.838;2023-04-05T13:32:33;5.85;;;3.47;;
54935;SDS011;40838;50.676;7.838;2023-04-05T13:35:01;4.88;;;3.33;;
54935;SDS011;40838;50.676;7.838;2023-04-05T13:37:27;4.07;;;3.45;;
54935;SDS011;40838;50.676;7.838;2023-04-05T13:39:54;4.90;;;2.75;;
54935;SDS011;40838;50.676;7.838;2023-04-05T13:42:21;4.88;;;3.35;;
54935;SDS011;40838;50.676;7.838;2023-04-05T13:44:48;4.82;;;3.00;;
54935;SDS011;40838;50.676;7.838;2023-04-05T13:47:15;5.53;;;3.47;;
54935;SDS011;40838;50.676;7.838;2023-04-05T13:49:43;4.47;;;3.22;;
54935;SDS011;40838;50.676;7.838;2023-04-05T13:52:10;7.38;;;3.05;;
54935;SDS011;40838;50.676;7.838;2023-04-05T13:54:37;4.07;;;2.75;;
54935;SDS011;40838;50.676;7.838;2023-04-05T13:57:04;4.40;;;3.10;;
54935;SDS011;40838;50.676;7.838;2023-04-05T13:59:30;4.32;;;3.00;;
54935;SDS011;40838;50.676;7.838;2023-04-05T14:01:57;6.68;;;3.53;;
54935;SDS011;40838;50.676;7.838;2023-04-05T14:04:24;5.15;;;3.30;;
54935;SDS011;40838;50.676;7.838;2023-04-05T14:06:52;7.35;;;3.28;;
54935;SDS011;40838;50.676;7.838;2023-04-05T14:09:19;5.75;;;3.53;;
54935;SDS011;40838;50.676;7.838;2023-04-05T14:11:46;5.15;;;2.97;;
54935;SDS011;40838;50.676;7.838;2023-04-05T14:14:12;5.55;;;3.28;;
54935;SDS011;40838;50.676;7.838;2023-04-05T14:16:39;6.82;;;3.45;;
54935;SDS011;40838;50.676;7.838;2023-04-05T14:19:06;5.90;;;3.40;;
54935;SDS011;40838;50.676;7.838;2023-04-05T14:21:33;4.82;;;2.90;;
54935;SDS011;40838;50.676;7.838;2023-04-05T14:24:03;4.68;;;3.13;;
54935;SDS011;40838;50.676;7.838;2023-04-05T14:26:29;5.72;;;3.40;;
54935;SDS011;40838;50.676;7.838;2023-04-05T14:28:56;6.03;;;2.85;;
54935;SDS011;40838;50.676;7.838;2023-04-05T14:31:23;4.82;;;2.88;;
54935;SDS011;40838;50.676;7.838;2023-04-05T14:33:50;6.53;;;3.03;;
54935;SDS011;40838;50.676;7.838;2023-04-05T14:36:17;4.57;;;3.25;;
54935;SDS011;40838;50.676;7.838;2023-04-05T14:38:44;4.60;;;3.15;;
54935;SDS011;40838;50.676;7.838;2023-04-05T14:41:12;9.07;;;3.10;;
54935;SDS011;40838;50.676;7.838;2023-04-05T14:43:39;7.03;;;2.90;;
54935;SDS011;40838;50.676;7.838;2023-04-05T14:46:06;5.93;;;2.80;;
54935;SDS011;40838;50.676;7.838;2023-04-05T14:48:33;4.57;;;2.80;;
54935;SDS011;40838;50.676;7.838;2023-04-05T14:51:00;5.38;;;3.53;;
54935;SDS011;40838;50.676;7.838;2023-04-05T14:53:26;3.78;;;2.90;;
54935;SDS011;40838;50.676;7.838;2023-04-05T14:55:53;7.35;;;3.45;;
54935;SDS011;40838;50.676;7.838;2023-04-05T14:58:21;6.85;;;3.17;;
54935;SDS011;40838;50.676;7.838;2023-04-05T15:00:48;4.63;;;2.65;;
54935;SDS011;40838;50.676;7.838;2023-04-05T15:03:15;4.35;;;2.97;;
54935;SDS011;40838;50.676;7.838;2023-04-05T15:05:44;5.00;;;2.92;;
54935;SDS011;40838;50.676;7.838;2023-04-05T15:08:11;5.50;;;3.10;;
54935;SDS011;40838;50.676;7.838;2023-04-05T15:10:38;6.07;;;2.75;;
54935;SDS011;40838;50.676;7.838;2023-04-05T15:13:06;4.07;;;3.03;;
54935;SDS011;40838;50.676;7.838;2023-04-05T15:15:34;5.38;;;2.88;;
54935;SDS011;40838;50.676;7.838;2023-04-05T15:18:03;8.30;;;3.10;;